sensor_id;sensor_type;location;lat;lon;timestamp;temperature;humidity
32698;DHT22;19087;51.062;3.754;2022-12-07T00:01:22;7.40;99.90
32698;DHT22;19087;51.062;3.754;2022-12-07T00:03:50;7.50;99.90
32698;DHT22;19087;51.062;3.754;2022-12-07T00:06:17;7.60;99.90
32698;DHT22;19087;51.062;3.754;2022-12-07T00:08:44;7.60;99.90
32698;DHT22;19087;51.062;3.754;2022-12-07T00:11:15;7.50;99.90
32698;DHT22;19087;51.062;3.754;2022-12-07T00:13:41;7.40;99.90
32698;DHT22;19087;51.062;3.754;2022-12-07T00:16:16;7.40;99.90
32698;DHT22;19087;51.062;3.754;2022-12-07T00:18:42;7.20;99.90
32698;DHT22;19087;51.062;3.754;2022-12-07T00:21:16;7.10;99.90
32698;DHT22;19087;51.062;3.754;2022-12-07T00:23:43;7.10;99.90
32698;DHT22;19087;51.062;3.754;2022-12-07T00:26:13;7.10;99.90
32698;DHT22;19087;51.062;3.754;2022-12-07T00:28:39;7.10;99.90
32698;DHT22;19087;51.062;3.754;2022-12-07T00:31:10;7.20;99.90
32698;DHT22;19087;51.062;3.754;2022-12-07T00:33:36;7.30;99.90
32698;DHT22;19087;51.062;3.754;2022-12-07T00:36:09;7.30;99.90
32698;DHT22;19087;51.062;3.754;2022-12-07T00:38:36;7.20;99.90
32698;DHT22;19087;51.062;3.754;2022-12-07T00:41:07;7.20;99.90
32698;DHT22;19087;51.062;3.754;2022-12-07T00:43:34;7.30;99.90
32698;DHT22;19087;51.062;3.754;2022-12-07T00:46:00;7.40;99.90
32698;DHT22;19087;51.062;3.754;2022-12-07T00:48:26;7.30;99.90
32698;DHT22;19087;51.062;3.754;2022-12-07T00:50:54;7.40;99.90
32698;DHT22;19087;51.062;3.754;2022-12-07T00:53:19;7.30;99.90
32698;DHT22;19087;51.062;3.754;2022-12-07T00:55:45;7.30;99.90
32698;DHT22;19087;51.062;3.754;2022-12-07T00:58:11;7.20;99.90
32698;DHT22;19087;51.062;3.754;2022-12-07T01:00:39;7.20;99.90
32698;DHT22;19087;51.062;3.754;2022-12-07T01:03:10;7.20;99.90
32698;DHT22;19087;51.062;3.754;2022-12-07T01:05:36;7.00;99.90
32698;DHT22;19087;51.062;3.754;2022-12-07T01:08:02;6.90;99.90
32698;DHT22;19087;51.062;3.754;2022-12-07T01:10:28;6.80;99.90
32698;DHT22;19087;51.062;3.754;2022-12-07T01:12:56;6.70;99.90
32698;DHT22;19087;51.062;3.754;2022-12-07T01:15:22;6.70;99.90
32698;DHT22;19087;51.062;3.754;2022-12-07T01:17:47;6.70;99.90
32698;DHT22;19087;51.062;3.754;2022-12-07T01:20:13;6.80;99.90
32698;DHT22;19087;51.062;3.754;2022-12-07T01:22:42;6.80;99.90
32698;DHT22;19087;51.062;3.754;2022-12-07T01:25:09;6.80;99.90
32698;DHT22;19087;51.062;3.754;2022-12-07T01:27:36;6.60;99.90
32698;DHT22;19087;51.062;3.754;2022-12-07T01:30:04;6.70;99.90
32698;DHT22;19087;51.062;3.754;2022-12-07T01:32:30;6.80;99.90
32698;DHT22;19087;51.062;3.754;2022-12-07T01:34:56;6.90;99.90
32698;DHT22;19087;51.062;3.754;2022-12-07T01:37:22;6.90;99.90
32698;DHT22;19087;51.062;3.754;2022-12-07T01:39:51;7.00;99.90
32698;DHT22;19087;51.062;3.754;2022-12-07T01:42:17;7.10;99.90
32698;DHT22;19087;51.062;3.754;2022-12-07T01:47:47;7.00;99.90
32698;DHT22;19087;51.062;3.754;2022-12-07T01:50:14;7.00;99.90
32698;DHT22;19087;51.062;3.754;2022-12-07T01:52:40;7.10;99.90
32698;DHT22;19087;51.062;3.754;2022-12-07T01:55:10;7.10;99.90
32698;DHT22;19087;51.062;3.754;2022-12-07T01:57:40;7.00;99.90
32698;DHT22;19087;51.062;3.754;2022-12-07T02:00:08;6.90;99.90
32698;DHT22;19087;51.062;3.754;2022-12-07T02:02:39;6.90;99.90
32698;DHT22;19087;51.062;3.754;2022-12-07T02:05:08;6.80;99.90
32698;DHT22;19087;51.062;3.754;2022-12-07T02:07:36;6.70;99.90
32698;DHT22;19087;51.062;3.754;2022-12-07T02:10:20;6.60;99.90
32698;DHT22;19087;51.062;3.754;2022-12-07T02:12:51;6.60;99.90
32698;DHT22;19087;51.062;3.754;2022-12-07T02:15:20;6.50;99.90
32698;DHT22;19087;51.062;3.754;2022-12-07T02:31:23;6.50;99.90
32698;DHT22;19087;51.062;3.754;2022-12-07T02:33:57;6.50;99.90
32698;DHT22;19087;51.062;3.754;2022-12-07T02:36:26;6.40;99.90
32698;DHT22;19087;51.062;3.754;2022-12-07T02:39:40;6.30;99.90
32698;DHT22;19087;51.062;3.754;2022-12-07T02:41:52;6.40;99.90
32698;DHT22;19087;51.062;3.754;2022-12-07T02:44:22;6.40;99.90
32698;DHT22;19087;51.062;3.754;2022-12-07T02:47:18;6.50;99.90
32698;DHT22;19087;51.062;3.754;2022-12-07T02:49:45;6.60;99.90
32698;DHT22;19087;51.062;3.754;2022-12-07T02:52:11;6.70;99.90
32698;DHT22;19087;51.062;3.754;2022-12-07T02:54:37;6.70;99.90
32698;DHT22;19087;51.062;3.754;2022-12-07T02:57:19;6.80;99.90
32698;DHT22;19087;51.062;3.754;2022-12-07T02:59:59;6.80;99.90
32698;DHT22;19087;51.062;3.754;2022-12-07T03:16:42;6.90;99.90
32698;DHT22;19087;51.062;3.754;2022-12-07T03:19:15;6.80;99.90
32698;DHT22;19087;51.062;3.754;2022-12-07T03:21:46;6.60;99.90
32698;DHT22;19087;51.062;3.754;2022-12-07T03:24:17;6.70;99.90
32698;DHT22;19087;51.062;3.754;2022-12-07T03:26:50;6.50;99.90
32698;DHT22;19087;51.062;3.754;2022-12-07T03:29:40;6.40;99.90
32698;DHT22;19087;51.062;3.754;2022-12-07T03:32:19;6.30;99.90
32698;DHT22;19087;51.062;3.754;2022-12-07T03:34:52;6.20;99.90
32698;DHT22;19087;51.062;3.754;2022-12-07T03:37:29;6.30;99.90
32698;DHT22;19087;51.062;3.754;2022-12-07T03:42:43;6.40;99.90
32698;DHT22;19087;51.062;3.754;2022-12-07T03:45:10;6.30;99.90
32698;DHT22;19087;51.062;3.754;2022-12-07T03:50:15;6.10;99.90
32698;DHT22;19087;51.062;3.754;2022-12-07T03:53:12;6.00;99.90
32698;DHT22;19087;51.062;3.754;2022-12-07T03:55:42;6.00;99.90
32698;DHT22;19087;51.062;3.754;2022-12-07T03:58:11;6.10;99.90
32698;DHT22;19087;51.062;3.754;2022-12-07T04:00:38;6.10;99.90
32698;DHT22;19087;51.062;3.754;2022-12-07T04:03:04;6.10;99.90
32698;DHT22;19087;51.062;3.754;2022-12-07T04:05:30;6.00;99.90
32698;DHT22;19087;51.062;3.754;2022-12-07T04:07:55;5.90;99.90
32698;DHT22;19087;51.062;3.754;2022-12-07T04:10:21;5.90;99.90
32698;DHT22;19087;51.062;3.754;2022-12-07T04:12:46;6.00;99.90
32698;DHT22;19087;51.062;3.754;2022-12-07T04:15:13;6.00;99.90
32698;DHT22;19087;51.062;3.754;2022-12-07T04:17:40;6.00;99.90
32698;DHT22;19087;51.062;3.754;2022-12-07T04:20:06;6.20;99.90
32698;DHT22;19087;51.062;3.754;2022-12-07T04:22:32;6.20;99.90
32698;DHT22;19087;51.062;3.754;2022-12-07T04:24:57;6.10;99.90
32698;DHT22;19087;51.062;3.754;2022-12-07T04:27:23;6.10;99.90
32698;DHT22;19087;51.062;3.754;2022-12-07T04:29:49;6.10;99.90
32698;DHT22;19087;51.062;3.754;2022-12-07T04:32:14;6.00;99.90
32698;DHT22;19087;51.062;3.754;2022-12-07T04:34:41;6.00;99.90
32698;DHT22;19087;51.062;3.754;2022-12-07T04:37:07;6.10;99.90
32698;DHT22;19087;51.062;3.754;2022-12-07T04:39:33;6.00;99.90
32698;DHT22;19087;51.062;3.754;2022-12-07T04:42:00;5.90;99.90
32698;DHT22;19087;51.062;3.754;2022-12-07T04:44:28;5.80;99.90
32698;DHT22;19087;51.062;3.754;2022-12-07T04:46:54;5.70;99.90
32698;DHT22;19087;51.062;3.754;2022-12-07T04:49:22;5.70;99.90
32698;DHT22;19087;51.062;3.754;2022-12-07T04:51:50;5.90;99.90
32698;DHT22;19087;51.062;3.754;2022-12-07T04:54:17;6.00;99.90
32698;DHT22;19087;51.062;3.754;2022-12-07T04:56:43;5.90;99.90
32698;DHT22;19087;51.062;3.754;2022-12-07T04:59:12;6.00;99.90
32698;DHT22;19087;51.062;3.754;2022-12-07T05:01:38;6.10;99.90
32698;DHT22;19087;51.062;3.754;2022-12-07T05:04:04;5.90;99.90
32698;DHT22;19087;51.062;3.754;2022-12-07T05:06:29;5.80;99.90
32698;DHT22;19087;51.062;3.754;2022-12-07T05:08:55;5.90;99.90
32698;DHT22;19087;51.062;3.754;2022-12-07T05:11:21;5.90;99.90
32698;DHT22;19087;51.062;3.754;2022-12-07T05:16:35;6.00;99.90
32698;DHT22;19087;51.062;3.754;2022-12-07T05:19:02;6.10;99.90
32698;DHT22;19087;51.062;3.754;2022-12-07T05:21:27;6.30;99.90
32698;DHT22;19087;51.062;3.754;2022-12-07T05:23:53;6.40;99.90
32698;DHT22;19087;51.062;3.754;2022-12-07T05:26:19;6.60;99.90
32698;DHT22;19087;51.062;3.754;2022-12-07T05:28:45;6.60;99.90
32698;DHT22;19087;51.062;3.754;2022-12-07T05:31:11;6.60;99.90
32698;DHT22;19087;51.062;3.754;2022-12-07T05:33:37;6.60;99.90
32698;DHT22;19087;51.062;3.754;2022-12-07T05:36:03;6.50;99.90
32698;DHT22;19087;51.062;3.754;2022-12-07T05:38:32;6.40;99.90
32698;DHT22;19087;51.062;3.754;2022-12-07T05:41:05;6.30;99.90
32698;DHT22;19087;51.062;3.754;2022-12-07T05:43:31;6.00;99.90
32698;DHT22;19087;51.062;3.754;2022-12-07T05:45:58;6.00;99.90
32698;DHT22;19087;51.062;3.754;2022-12-07T05:48:24;6.00;99.90
32698;DHT22;19087;51.062;3.754;2022-12-07T05:50:50;5.90;99.90
32698;DHT22;19087;51.062;3.754;2022-12-07T05:53:17;5.80;99.90
32698;DHT22;19087;51.062;3.754;2022-12-07T05:55:43;5.70;99.90
32698;DHT22;19087;51.062;3.754;2022-12-07T05:58:10;5.80;99.90
32698;DHT22;19087;51.062;3.754;2022-12-07T06:00:55;5.80;99.90
32698;DHT22;19087;51.062;3.754;2022-12-07T06:03:21;6.00;99.90
32698;DHT22;19087;51.062;3.754;2022-12-07T06:05:46;6.00;99.90
32698;DHT22;19087;51.062;3.754;2022-12-07T06:08:12;6.00;99.90
32698;DHT22;19087;51.062;3.754;2022-12-07T06:10:40;6.10;99.90
32698;DHT22;19087;51.062;3.754;2022-12-07T06:13:07;5.90;99.90
32698;DHT22;19087;51.062;3.754;2022-12-07T06:15:36;5.80;99.90
32698;DHT22;19087;51.062;3.754;2022-12-07T06:18:02;5.90;99.90
32698;DHT22;19087;51.062;3.754;2022-12-07T06:20:27;6.10;99.90
32698;DHT22;19087;51.062;3.754;2022-12-07T06:22:53;6.30;99.90
32698;DHT22;19087;51.062;3.754;2022-12-07T06:25:19;6.20;99.90
32698;DHT22;19087;51.062;3.754;2022-12-07T06:27:44;6.20;99.90
32698;DHT22;19087;51.062;3.754;2022-12-07T06:30:11;6.40;99.90
32698;DHT22;19087;51.062;3.754;2022-12-07T06:32:37;6.40;99.90
32698;DHT22;19087;51.062;3.754;2022-12-07T06:35:03;6.40;99.90
32698;DHT22;19087;51.062;3.754;2022-12-07T06:37:29;6.30;99.90
32698;DHT22;19087;51.062;3.754;2022-12-07T06:39:56;6.30;99.90
32698;DHT22;19087;51.062;3.754;2022-12-07T06:42:21;6.40;99.90
32698;DHT22;19087;51.062;3.754;2022-12-07T06:44:47;6.50;99.90
32698;DHT22;19087;51.062;3.754;2022-12-07T06:47:13;6.50;99.90
32698;DHT22;19087;51.062;3.754;2022-12-07T06:49:41;6.60;99.90
32698;DHT22;19087;51.062;3.754;2022-12-07T06:52:07;6.70;99.90
32698;DHT22;19087;51.062;3.754;2022-12-07T06:54:35;6.70;99.90
32698;DHT22;19087;51.062;3.754;2022-12-07T06:57:01;6.80;99.90
32698;DHT22;19087;51.062;3.754;2022-12-07T06:59:27;6.70;99.90
32698;DHT22;19087;51.062;3.754;2022-12-07T07:01:54;6.70;99.90
32698;DHT22;19087;51.062;3.754;2022-12-07T07:04:21;6.80;99.90
32698;DHT22;19087;51.062;3.754;2022-12-07T07:06:48;6.80;99.90
32698;DHT22;19087;51.062;3.754;2022-12-07T07:09:13;6.70;99.90
32698;DHT22;19087;51.062;3.754;2022-12-07T07:11:40;6.60;99.90
32698;DHT22;19087;51.062;3.754;2022-12-07T07:14:05;6.50;99.90
32698;DHT22;19087;51.062;3.754;2022-12-07T07:16:32;6.50;99.90
32698;DHT22;19087;51.062;3.754;2022-12-07T07:18:58;6.40;99.90
32698;DHT22;19087;51.062;3.754;2022-12-07T07:21:23;6.60;99.90
32698;DHT22;19087;51.062;3.754;2022-12-07T07:23:49;6.60;99.90
32698;DHT22;19087;51.062;3.754;2022-12-07T07:26:15;6.60;99.90
32698;DHT22;19087;51.062;3.754;2022-12-07T07:28:40;6.60;99.90
32698;DHT22;19087;51.062;3.754;2022-12-07T07:31:07;6.70;99.90
32698;DHT22;19087;51.062;3.754;2022-12-07T07:33:32;6.70;99.90
32698;DHT22;19087;51.062;3.754;2022-12-07T07:35:58;6.80;99.90
32698;DHT22;19087;51.062;3.754;2022-12-07T07:38:24;6.80;99.90
32698;DHT22;19087;51.062;3.754;2022-12-07T07:40:49;6.80;99.90
32698;DHT22;19087;51.062;3.754;2022-12-07T07:43:15;6.60;99.90
32698;DHT22;19087;51.062;3.754;2022-12-07T07:45:41;6.70;99.90
32698;DHT22;19087;51.062;3.754;2022-12-07T07:48:06;6.60;99.90
32698;DHT22;19087;51.062;3.754;2022-12-07T07:50:32;6.60;99.90
32698;DHT22;19087;51.062;3.754;2022-12-07T07:52:58;6.60;99.90
32698;DHT22;19087;51.062;3.754;2022-12-07T07:55:23;6.50;99.90
32698;DHT22;19087;51.062;3.754;2022-12-07T07:57:49;6.30;99.90
32698;DHT22;19087;51.062;3.754;2022-12-07T08:00:15;6.30;99.90
32698;DHT22;19087;51.062;3.754;2022-12-07T08:02:43;6.10;99.90
32698;DHT22;19087;51.062;3.754;2022-12-07T08:05:09;6.00;99.90
32698;DHT22;19087;51.062;3.754;2022-12-07T08:07:35;5.90;99.90
32698;DHT22;19087;51.062;3.754;2022-12-07T08:10:00;5.80;99.90
32698;DHT22;19087;51.062;3.754;2022-12-07T08:12:26;5.80;99.90
32698;DHT22;19087;51.062;3.754;2022-12-07T08:14:52;5.80;99.90
32698;DHT22;19087;51.062;3.754;2022-12-07T08:17:17;5.80;99.90
32698;DHT22;19087;51.062;3.754;2022-12-07T08:19:43;5.90;99.90
32698;DHT22;19087;51.062;3.754;2022-12-07T08:22:09;6.10;99.90
32698;DHT22;19087;51.062;3.754;2022-12-07T08:24:35;6.10;99.90
32698;DHT22;19087;51.062;3.754;2022-12-07T08:27:02;6.10;99.90
32698;DHT22;19087;51.062;3.754;2022-12-07T08:29:28;6.20;99.90
32698;DHT22;19087;51.062;3.754;2022-12-07T08:31:54;6.40;99.90
32698;DHT22;19087;51.062;3.754;2022-12-07T08:34:20;6.60;99.90
32698;DHT22;19087;51.062;3.754;2022-12-07T08:36:46;6.90;99.90
32698;DHT22;19087;51.062;3.754;2022-12-07T08:39:12;7.00;99.90
32698;DHT22;19087;51.062;3.754;2022-12-07T08:41:37;7.20;99.90
32698;DHT22;19087;51.062;3.754;2022-12-07T08:44:03;7.20;99.90
32698;DHT22;19087;51.062;3.754;2022-12-07T08:46:38;7.30;99.90
32698;DHT22;19087;51.062;3.754;2022-12-07T08:49:10;7.40;99.90
32698;DHT22;19087;51.062;3.754;2022-12-07T08:51:40;7.50;99.90
32698;DHT22;19087;51.062;3.754;2022-12-07T08:54:10;7.40;99.90
32698;DHT22;19087;51.062;3.754;2022-12-07T08:56:37;7.50;99.90
32698;DHT22;19087;51.062;3.754;2022-12-07T08:59:06;7.50;99.90
32698;DHT22;19087;51.062;3.754;2022-12-07T09:01:32;7.40;99.90
32698;DHT22;19087;51.062;3.754;2022-12-07T09:03:58;7.30;99.90
32698;DHT22;19087;51.062;3.754;2022-12-07T09:06:24;7.20;99.90
32698;DHT22;19087;51.062;3.754;2022-12-07T09:08:55;7.20;99.90
32698;DHT22;19087;51.062;3.754;2022-12-07T09:11:25;7.10;99.90
32698;DHT22;19087;51.062;3.754;2022-12-07T09:13:50;7.40;99.90
32698;DHT22;19087;51.062;3.754;2022-12-07T09:16:17;7.80;99.90
32698;DHT22;19087;51.062;3.754;2022-12-07T09:18:44;8.10;99.90
32698;DHT22;19087;51.062;3.754;2022-12-07T09:21:10;8.40;99.90
32698;DHT22;19087;51.062;3.754;2022-12-07T09:23:35;8.40;99.90
32698;DHT22;19087;51.062;3.754;2022-12-07T09:26:03;8.40;99.90
32698;DHT22;19087;51.062;3.754;2022-12-07T09:28:31;8.60;99.90
32698;DHT22;19087;51.062;3.754;2022-12-07T09:30:56;8.90;99.90
32698;DHT22;19087;51.062;3.754;2022-12-07T09:33:23;9.10;99.90
32698;DHT22;19087;51.062;3.754;2022-12-07T09:35:50;9.00;99.90
32698;DHT22;19087;51.062;3.754;2022-12-07T09:38:17;9.00;99.90
32698;DHT22;19087;51.062;3.754;2022-12-07T09:40:42;8.80;99.90
32698;DHT22;19087;51.062;3.754;2022-12-07T09:43:18;8.70;99.90
32698;DHT22;19087;51.062;3.754;2022-12-07T09:45:45;8.80;99.90
32698;DHT22;19087;51.062;3.754;2022-12-07T09:48:33;8.70;99.90
32698;DHT22;19087;51.062;3.754;2022-12-07T09:51:02;8.60;99.90
32698;DHT22;19087;51.062;3.754;2022-12-07T09:53:33;8.50;99.90
32698;DHT22;19087;51.062;3.754;2022-12-07T09:56:00;8.70;99.90
32698;DHT22;19087;51.062;3.754;2022-12-07T09:58:28;8.60;99.90
32698;DHT22;19087;51.062;3.754;2022-12-07T10:03:38;8.50;99.90
32698;DHT22;19087;51.062;3.754;2022-12-07T10:06:05;8.40;99.90
32698;DHT22;19087;51.062;3.754;2022-12-07T10:08:33;8.40;99.90
32698;DHT22;19087;51.062;3.754;2022-12-07T10:11:01;8.20;99.90
32698;DHT22;19087;51.062;3.754;2022-12-07T10:13:36;8.20;99.90
32698;DHT22;19087;51.062;3.754;2022-12-07T10:16:02;8.20;99.90
32698;DHT22;19087;51.062;3.754;2022-12-07T10:18:32;8.30;99.90
32698;DHT22;19087;51.062;3.754;2022-12-07T10:21:19;8.20;99.90
32698;DHT22;19087;51.062;3.754;2022-12-07T10:29:33;8.20;99.90
32698;DHT22;19087;51.062;3.754;2022-12-07T10:32:02;7.90;99.90
32698;DHT22;19087;51.062;3.754;2022-12-07T10:34:33;8.20;99.90
32698;DHT22;19087;51.062;3.754;2022-12-07T10:39:51;8.80;99.90
32698;DHT22;19087;51.062;3.754;2022-12-07T10:42:18;9.00;99.90
32698;DHT22;19087;51.062;3.754;2022-12-07T10:44:44;9.10;99.90
32698;DHT22;19087;51.062;3.754;2022-12-07T11:12:13;9.30;99.90
32698;DHT22;19087;51.062;3.754;2022-12-07T11:18:04;9.10;99.90
32698;DHT22;19087;51.062;3.754;2022-12-07T11:26:22;9.00;99.90
32698;DHT22;19087;51.062;3.754;2022-12-07T11:37:02;9.10;99.90
32698;DHT22;19087;51.062;3.754;2022-12-07T11:39:36;9.20;99.90
32698;DHT22;19087;51.062;3.754;2022-12-07T11:42:06;9.30;99.90
32698;DHT22;19087;51.062;3.754;2022-12-07T11:47:30;9.30;99.90
32698;DHT22;19087;51.062;3.754;2022-12-07T11:52:49;9.70;99.90
32698;DHT22;19087;51.062;3.754;2022-12-07T12:01:18;9.90;99.90
32698;DHT22;19087;51.062;3.754;2022-12-07T12:06:38;9.70;99.90
32698;DHT22;19087;51.062;3.754;2022-12-07T12:12:21;10.00;99.90
32698;DHT22;19087;51.062;3.754;2022-12-07T12:18:17;10.10;99.90
32698;DHT22;19087;51.062;3.754;2022-12-07T12:21:21;10.00;99.90
32698;DHT22;19087;51.062;3.754;2022-12-07T12:27:02;10.30;99.90
32698;DHT22;19087;51.062;3.754;2022-12-07T12:29:44;10.40;99.90
32698;DHT22;19087;51.062;3.754;2022-12-07T12:32:19;10.40;99.90
32698;DHT22;19087;51.062;3.754;2022-12-07T12:37:53;10.00;99.90
32698;DHT22;19087;51.062;3.754;2022-12-07T12:42:57;10.00;99.90
32698;DHT22;19087;51.062;3.754;2022-12-07T12:45:28;9.90;99.90
32698;DHT22;19087;51.062;3.754;2022-12-07T12:47:56;10.00;99.90
32698;DHT22;19087;51.062;3.754;2022-12-07T12:53:23;10.20;99.90
32698;DHT22;19087;51.062;3.754;2022-12-07T12:56:11;10.30;99.90
32698;DHT22;19087;51.062;3.754;2022-12-07T12:58:42;10.30;99.90
32698;DHT22;19087;51.062;3.754;2022-12-07T13:01:40;10.30;99.90
32698;DHT22;19087;51.062;3.754;2022-12-07T13:04:38;10.30;99.90
32698;DHT22;19087;51.062;3.754;2022-12-07T13:07:11;10.10;99.90
32698;DHT22;19087;51.062;3.754;2022-12-07T13:09:42;10.00;99.90
32698;DHT22;19087;51.062;3.754;2022-12-07T13:12:14;9.80;99.90
32698;DHT22;19087;51.062;3.754;2022-12-07T13:20:05;9.70;99.90
32698;DHT22;19087;51.062;3.754;2022-12-07T13:25:31;9.50;99.90
32698;DHT22;19087;51.062;3.754;2022-12-07T13:31:00;9.70;99.90
32698;DHT22;19087;51.062;3.754;2022-12-07T13:33:30;9.60;99.90
32698;DHT22;19087;51.062;3.754;2022-12-07T13:35:57;9.80;99.90
32698;DHT22;19087;51.062;3.754;2022-12-07T13:38:34;9.70;99.90
32698;DHT22;19087;51.062;3.754;2022-12-07T13:41:13;9.80;99.90
32698;DHT22;19087;51.062;3.754;2022-12-07T13:43:48;9.80;99.90
32698;DHT22;19087;51.062;3.754;2022-12-07T13:46:14;9.70;99.90
32698;DHT22;19087;51.062;3.754;2022-12-07T13:48:49;9.90;99.90
32698;DHT22;19087;51.062;3.754;2022-12-07T13:53:52;10.30;99.90
32698;DHT22;19087;51.062;3.754;2022-12-07T13:56:21;10.50;99.90
32698;DHT22;19087;51.062;3.754;2022-12-07T13:58:48;10.40;99.90
32698;DHT22;19087;51.062;3.754;2022-12-07T14:01:14;10.40;99.90
32698;DHT22;19087;51.062;3.754;2022-12-07T14:03:41;10.50;99.90
32698;DHT22;19087;51.062;3.754;2022-12-07T14:06:26;10.50;99.90
32698;DHT22;19087;51.062;3.754;2022-12-07T14:09:17;10.60;99.90
32698;DHT22;19087;51.062;3.754;2022-12-07T14:11:43;10.50;99.90
32698;DHT22;19087;51.062;3.754;2022-12-07T14:14:19;10.40;99.90
32698;DHT22;19087;51.062;3.754;2022-12-07T14:27:57;10.50;99.90
32698;DHT22;19087;51.062;3.754;2022-12-07T14:30:26;10.40;99.90
32698;DHT22;19087;51.062;3.754;2022-12-07T14:33:03;10.20;99.90
32698;DHT22;19087;51.062;3.754;2022-12-07T14:35:32;10.10;99.90
32698;DHT22;19087;51.062;3.754;2022-12-07T14:37:58;9.80;99.90
32698;DHT22;19087;51.062;3.754;2022-12-07T14:40:27;9.60;99.90
32698;DHT22;19087;51.062;3.754;2022-12-07T14:43:05;9.60;99.90
32698;DHT22;19087;51.062;3.754;2022-12-07T14:45:35;9.40;99.90
32698;DHT22;19087;51.062;3.754;2022-12-07T14:48:01;9.40;99.90
32698;DHT22;19087;51.062;3.754;2022-12-07T14:50:29;9.40;99.90
32698;DHT22;19087;51.062;3.754;2022-12-07T14:53:11;9.30;99.90
32698;DHT22;19087;51.062;3.754;2022-12-07T14:55:38;9.30;99.90
32698;DHT22;19087;51.062;3.754;2022-12-07T14:58:10;9.10;99.90
32698;DHT22;19087;51.062;3.754;2022-12-07T15:00:37;9.30;99.90
32698;DHT22;19087;51.062;3.754;2022-12-07T15:03:05;9.30;99.90
32698;DHT22;19087;51.062;3.754;2022-12-07T15:05:32;9.40;99.90
32698;DHT22;19087;51.062;3.754;2022-12-07T15:07:58;9.20;99.90
32698;DHT22;19087;51.062;3.754;2022-12-07T15:10:28;9.10;99.90
32698;DHT22;19087;51.062;3.754;2022-12-07T15:12:56;8.80;99.90
32698;DHT22;19087;51.062;3.754;2022-12-07T15:15:45;8.80;99.90
32698;DHT22;19087;51.062;3.754;2022-12-07T15:18:11;8.50;99.90
32698;DHT22;19087;51.062;3.754;2022-12-07T15:20:36;8.80;99.90
32698;DHT22;19087;51.062;3.754;2022-12-07T15:23:05;8.90;99.90
32698;DHT22;19087;51.062;3.754;2022-12-07T15:25:34;9.10;99.90
32698;DHT22;19087;51.062;3.754;2022-12-07T15:28:00;9.00;99.90
32698;DHT22;19087;51.062;3.754;2022-12-07T15:30:29;9.00;99.90
32698;DHT22;19087;51.062;3.754;2022-12-07T15:32:56;8.70;99.90
32698;DHT22;19087;51.062;3.754;2022-12-07T15:35:22;8.70;99.90
32698;DHT22;19087;51.062;3.754;2022-12-07T15:37:49;8.70;99.90
32698;DHT22;19087;51.062;3.754;2022-12-07T15:40:18;8.70;99.90
32698;DHT22;19087;51.062;3.754;2022-12-07T15:42:43;8.60;99.90
32698;DHT22;19087;51.062;3.754;2022-12-07T15:45:09;8.50;99.90
32698;DHT22;19087;51.062;3.754;2022-12-07T15:47:41;8.30;99.90
32698;DHT22;19087;51.062;3.754;2022-12-07T15:50:11;8.30;99.90
32698;DHT22;19087;51.062;3.754;2022-12-07T15:52:38;8.20;99.90
32698;DHT22;19087;51.062;3.754;2022-12-07T15:55:04;8.30;99.90
32698;DHT22;19087;51.062;3.754;2022-12-07T15:57:32;8.20;99.90
32698;DHT22;19087;51.062;3.754;2022-12-07T15:59:59;8.30;99.90
32698;DHT22;19087;51.062;3.754;2022-12-07T16:02:25;8.10;99.90
32698;DHT22;19087;51.062;3.754;2022-12-07T16:04:52;7.70;99.90
32698;DHT22;19087;51.062;3.754;2022-12-07T16:07:21;7.70;99.90
32698;DHT22;19087;51.062;3.754;2022-12-07T16:09:49;7.90;99.90
32698;DHT22;19087;51.062;3.754;2022-12-07T16:12:17;7.80;99.90
32698;DHT22;19087;51.062;3.754;2022-12-07T16:14:45;7.90;99.90
32698;DHT22;19087;51.062;3.754;2022-12-07T16:17:12;7.80;99.90
32698;DHT22;19087;51.062;3.754;2022-12-07T16:19:38;7.70;99.90
32698;DHT22;19087;51.062;3.754;2022-12-07T16:22:05;7.60;99.90
32698;DHT22;19087;51.062;3.754;2022-12-07T16:24:31;7.80;99.90
32698;DHT22;19087;51.062;3.754;2022-12-07T16:27:07;7.90;99.90
32698;DHT22;19087;51.062;3.754;2022-12-07T16:29:33;8.20;99.90
32698;DHT22;19087;51.062;3.754;2022-12-07T16:31:59;8.20;99.90
32698;DHT22;19087;51.062;3.754;2022-12-07T16:34:24;8.10;99.90
32698;DHT22;19087;51.062;3.754;2022-12-07T16:36:52;8.10;99.90
32698;DHT22;19087;51.062;3.754;2022-12-07T16:39:18;8.10;99.90
32698;DHT22;19087;51.062;3.754;2022-12-07T16:41:44;8.00;99.90
32698;DHT22;19087;51.062;3.754;2022-12-07T16:44:11;7.90;99.90
32698;DHT22;19087;51.062;3.754;2022-12-07T16:46:38;7.80;99.90
32698;DHT22;19087;51.062;3.754;2022-12-07T16:49:06;8.00;99.90
32698;DHT22;19087;51.062;3.754;2022-12-07T16:51:32;8.20;99.90
32698;DHT22;19087;51.062;3.754;2022-12-07T16:54:01;8.20;99.90
32698;DHT22;19087;51.062;3.754;2022-12-07T16:56:26;8.20;99.90
32698;DHT22;19087;51.062;3.754;2022-12-07T16:58:54;8.00;99.90
32698;DHT22;19087;51.062;3.754;2022-12-07T17:01:21;7.80;99.90
32698;DHT22;19087;51.062;3.754;2022-12-07T17:03:48;7.80;99.90
32698;DHT22;19087;51.062;3.754;2022-12-07T17:06:19;8.00;99.90
32698;DHT22;19087;51.062;3.754;2022-12-07T17:08:49;8.00;99.90
32698;DHT22;19087;51.062;3.754;2022-12-07T17:11:27;8.20;99.90
32698;DHT22;19087;51.062;3.754;2022-12-07T17:13:56;8.00;99.90
32698;DHT22;19087;51.062;3.754;2022-12-07T17:16:41;8.00;99.90
32698;DHT22;19087;51.062;3.754;2022-12-07T17:19:12;8.10;99.90
32698;DHT22;19087;51.062;3.754;2022-12-07T17:21:38;8.00;99.90
32698;DHT22;19087;51.062;3.754;2022-12-07T17:24:07;8.10;99.90
32698;DHT22;19087;51.062;3.754;2022-12-07T17:26:34;7.90;99.90
32698;DHT22;19087;51.062;3.754;2022-12-07T17:29:00;7.60;99.90
32698;DHT22;19087;51.062;3.754;2022-12-07T17:31:27;7.40;99.90
32698;DHT22;19087;51.062;3.754;2022-12-07T17:33:53;7.20;99.90
32698;DHT22;19087;51.062;3.754;2022-12-07T17:36:29;7.00;99.90
32698;DHT22;19087;51.062;3.754;2022-12-07T17:38:57;7.10;99.90
32698;DHT22;19087;51.062;3.754;2022-12-07T17:41:27;7.10;99.90
32698;DHT22;19087;51.062;3.754;2022-12-07T17:44:16;7.10;99.90
32698;DHT22;19087;51.062;3.754;2022-12-07T17:46:44;7.20;99.90
32698;DHT22;19087;51.062;3.754;2022-12-07T17:49:11;7.10;99.90
32698;DHT22;19087;51.062;3.754;2022-12-07T17:51:36;7.20;99.90
32698;DHT22;19087;51.062;3.754;2022-12-07T17:54:21;7.00;99.90
32698;DHT22;19087;51.062;3.754;2022-12-07T17:56:47;7.00;99.90
32698;DHT22;19087;51.062;3.754;2022-12-07T17:59:13;6.90;99.90
32698;DHT22;19087;51.062;3.754;2022-12-07T18:01:40;6.90;99.90
32698;DHT22;19087;51.062;3.754;2022-12-07T18:04:06;6.70;99.90
32698;DHT22;19087;51.062;3.754;2022-12-07T18:06:32;6.60;99.90
32698;DHT22;19087;51.062;3.754;2022-12-07T18:08:59;6.40;99.90
32698;DHT22;19087;51.062;3.754;2022-12-07T18:11:26;6.30;99.90
32698;DHT22;19087;51.062;3.754;2022-12-07T18:13:52;6.50;99.90
32698;DHT22;19087;51.062;3.754;2022-12-07T18:16:23;6.50;99.90
32698;DHT22;19087;51.062;3.754;2022-12-07T18:18:50;6.40;99.90
32698;DHT22;19087;51.062;3.754;2022-12-07T18:21:22;6.40;99.90
32698;DHT22;19087;51.062;3.754;2022-12-07T18:23:54;6.30;99.90
32698;DHT22;19087;51.062;3.754;2022-12-07T18:26:22;6.20;99.90